Time;durP1;ratioP1;P1;durP2;ratioP2;P2;SDS_P1;SDS_P2;PMS_P1;PMS_P2;Temp;Humidity;BMP_temperature;BMP_pressure;BME280_temperature;BME280_humidity;BME280_pressure;Samples;Min_cycle;Max_cycle;Signal;HPM_P1;HPM_P2
2022/07/10 00:00:44;;;;;;;10.20;3.00;;;;;;;22.59;51.46;101836.56;5024557;28;20022;-48
2022/07/10 00:03:11;;;;;;;6.55;2.50;;;;;;;22.18;52.16;101847.16;5003350;28;20370;-46
2022/07/10 00:05:37;;;;;;;8.88;2.95;;;;;;;22.02;52.61;101837.16;4992460;28;20026;-50
2022/07/10 00:08:03;;;;;;;11.27;2.50;;;;;;;22.04;52.96;101835.84;4992534;28;20026;-51
2022/07/10 00:10:30;;;;;;;8.30;2.92;;;;;;;21.88;53.18;101845.75;5000746;28;20077;-47
2022/07/10 00:12:57;;;;;;;9.23;2.88;;;;;;;21.74;53.89;101841.78;5006764;28;20476;-52
2022/07/10 00:15:23;;;;;;;5.30;2.35;;;;;;;21.78;53.12;101832.03;4999333;28;20383;-50
2022/07/10 00:17:49;;;;;;;7.78;2.85;;;;;;;21.42;54.05;101829.97;5002718;28;20110;-53
2022/07/10 00:20:16;;;;;;;9.98;3.15;;;;;;;21.40;54.09;101840.31;4997891;28;20093;-51
2022/07/10 00:22:43;;;;;;;10.13;3.08;;;;;;;21.27;55.03;101846.94;5022565;28;20045;-50
2022/07/10 00:25:13;;;;;;;9.68;3.03;;;;;;;21.26;54.92;101846.09;5000599;28;20278;-49
2022/07/10 00:27:40;;;;;;;7.03;2.80;;;;;;;21.13;54.88;101837.47;5003451;28;20026;-49
2022/07/10 00:30:08;;;;;;;8.50;3.35;;;;;;;21.34;54.85;101837.53;5004930;28;20024;-50
2022/07/10 00:32:35;;;;;;;13.63;3.05;;;;;;;21.28;54.40;101832.25;5012529;28;20053;-50
2022/07/10 00:35:02;;;;;;;6.38;2.80;;;;;;;21.30;54.81;101830.94;5009030;28;20451;-50
2022/07/10 00:37:28;;;;;;;12.20;3.10;;;;;;;21.23;54.52;101813.94;5001739;28;20153;-45
2022/07/10 00:39:54;;;;;;;8.73;3.10;;;;;;;21.17;54.66;101823.13;5004319;28;20030;-49
2022/07/10 00:42:21;;;;;;;5.85;2.25;;;;;;;21.06;54.53;101827.59;5021306;28;20462;-47
2022/07/10 00:44:47;;;;;;;8.85;3.17;;;;;;;21.08;56.37;101824.63;5032162;28;20496;-48
2022/07/10 00:47:17;;;;;;;10.35;3.08;;;;;;;21.20;57.27;101829.94;5009268;28;20115;-45
2022/07/10 00:49:43;;;;;;;6.72;2.22;;;;;;;21.28;56.21;101816.72;5028771;28;20041;-44
2022/07/10 00:52:14;;;;;;;11.63;2.80;;;;;;;21.25;56.05;101811.78;5028873;28;20034;-47
2022/07/10 00:54:44;;;;;;;9.65;2.67;;;;;;;21.28;54.57;101807.72;5002160;28;20493;-54
2022/07/10 00:57:12;;;;;;;6.78;2.78;;;;;;;21.34;54.63;101813.00;5007205;28;20041;-50
2022/07/10 00:59:38;;;;;;;11.00;2.53;;;;;;;21.24;54.91;101815.56;5032036;28;20022;-49
2022/07/10 01:02:05;;;;;;;6.50;2.50;;;;;;;21.06;56.17;101816.72;5018846;28;20478;-49
2022/07/10 01:04:33;;;;;;;16.50;3.40;;;;;;;21.17;55.84;101814.94;5011970;28;20104;-46
2022/07/10 01:07:00;;;;;;;9.77;2.70;;;;;;;21.18;55.21;101811.16;5014264;28;20034;-49
2022/07/10 01:09:28;;;;;;;9.77;2.47;;;;;;;21.07;54.91;101806.66;5012488;28;20397;-45
2022/07/10 01:11:56;;;;;;;10.65;2.90;;;;;;;20.92;56.34;101801.00;5014664;28;20025;-47
2022/07/10 01:14:22;;;;;;;11.57;3.00;;;;;;;21.19;54.84;101796.44;5016008;28;20033;-48
2022/07/10 01:16:49;;;;;;;10.20;3.40;;;;;;;21.21;55.19;101788.03;5016308;28;20056;-49
2022/07/10 01:19:16;;;;;;;9.18;2.72;;;;;;;21.07;55.23;101793.03;5015679;28;20041;-49
2022/07/10 01:21:42;;;;;;;9.70;2.95;;;;;;;20.95;55.48;101795.06;5015614;28;20132;-49
2022/07/10 01:24:10;;;;;;;10.13;2.67;;;;;;;20.80;55.30;101792.94;5009138;28;20370;-49
2022/07/10 01:26:37;;;;;;;8.82;2.78;;;;;;;20.90;56.04;101792.28;5015755;28;20530;-48
2022/07/10 01:29:07;;;;;;;7.85;2.60;;;;;;;20.87;56.07;101790.88;5020815;28;20026;-48
2022/07/10 01:31:34;;;;;;;10.18;2.83;;;;;;;20.97;56.02;101796.44;4997343;28;20372;-47
2022/07/10 01:34:01;;;;;;;9.88;3.05;;;;;;;20.93;55.74;101797.19;4996356;28;20026;-46
2022/07/10 01:36:31;;;;;;;5.88;2.65;;;;;;;20.81;55.90;101797.31;4996269;28;20029;-45
2022/07/10 01:38:58;;;;;;;8.95;2.58;;;;;;;20.82;56.57;101797.09;4996164;28;20541;-44
2022/07/10 01:41:25;;;;;;;7.10;2.88;;;;;;;20.82;55.72;101785.34;4994798;28;20042;-46
2022/07/10 01:43:52;;;;;;;9.48;2.80;;;;;;;20.59;56.63;101780.94;5008330;28;20037;-48
2022/07/10 01:46:19;;;;;;;10.52;2.88;;;;;;;20.39;56.87;101795.06;5022610;28;20036;-49
2022/07/10 01:48:45;;;;;;;18.40;3.35;;;;;;;20.23;57.21;101788.53;5019120;28;20434;-46
2022/07/10 01:51:13;;;;;;;10.05;2.83;;;;;;;20.35;56.88;101782.19;5017824;28;20026;-47
2022/07/10 01:53:40;;;;;;;6.72;2.90;;;;;;;20.44;57.06;101788.88;5015244;28;20117;-49
2022/07/10 01:56:09;;;;;;;5.55;2.38;;;;;;;20.63;57.17;101789.44;5015452;28;20021;-49
2022/07/10 01:58:36;;;;;;;9.75;2.92;;;;;;;20.93;55.93;101789.03;5015617;28;20087;-48
2022/07/10 02:01:04;;;;;;;14.10;3.17;;;;;;;20.95;54.69;101787.72;5016511;28;20057;-47
2022/07/10 02:06:16;;;;;;;8.90;2.78;;;;;;;21.07;54.83;101793.03;4996052;28;20514;-49
2022/07/10 02:08:43;;;;;;;9.32;2.63;;;;;;;21.10;55.02;101781.66;4994733;28;20505;-49
2022/07/10 02:11:09;;;;;;;9.07;2.83;;;;;;;21.12;54.73;101778.69;5014338;28;20033;-49
2022/07/10 02:13:36;;;;;;;9.50;3.25;;;;;;;21.38;54.57;101786.09;5012156;28;20109;-49
2022/07/10 02:16:02;;;;;;;10.88;3.33;;;;;;;21.43;54.12;101791.59;5014832;28;20026;-51
2022/07/10 02:18:29;;;;;;;6.72;2.55;;;;;;;21.60;53.02;101784.16;5008673;28;20165;-49
2022/07/10 02:20:55;;;;;;;6.00;2.47;;;;;;;21.98;52.61;101786.94;5025515;28;20033;-47
2022/07/10 02:23:21;;;;;;;9.00;2.55;;;;;;;22.00;51.38;101785.63;5019886;28;20022;-47
2022/07/10 02:25:47;;;;;;;8.98;2.58;;;;;;;22.26;50.90;101783.94;5014864;28;20080;-47
2022/07/10 02:28:16;;;;;;;6.65;2.83;;;;;;;22.37;50.52;101782.09;5014812;28;20501;-51
2022/07/10 02:30:43;;;;;;;12.95;3.03;;;;;;;22.38;50.73;101775.59;5014546;28;20096;-50
2022/07/10 02:33:09;;;;;;;9.68;2.97;;;;;;;22.23;50.63;101770.84;5022551;28;20096;-50
2022/07/10 02:35:35;;;;;;;16.80;3.72;;;;;;;22.29;50.70;101775.25;5034609;28;20039;-51
2022/07/10 02:38:01;;;;;;;9.90;3.15;;;;;;;22.31;50.71;101769.53;5016035;28;20426;-46
2022/07/10 02:40:28;;;;;;;6.72;2.60;;;;;;;22.14;50.60;101772.41;5014519;28;20029;-45
2022/07/10 02:42:54;;;;;;;8.60;2.95;;;;;;;22.05;51.44;101782.94;5014517;28;20104;-47
2022/07/10 02:45:20;;;;;;;11.20;2.45;;;;;;;21.90;51.65;101782.81;5014312;28;20037;-47
2022/07/10 02:47:46;;;;;;;9.80;3.20;;;;;;;21.94;51.98;101774.94;5014016;28;20033;-49
2022/07/10 02:50:12;;;;;;;15.65;3.22;;;;;;;21.60;52.46;101769.72;4996944;28;20068;-48
2022/07/10 02:52:39;;;;;;;9.63;3.10;;;;;;;21.36;53.04;101780.06;5014024;28;20030;-51
2022/07/10 02:55:05;;;;;;;9.43;2.63;;;;;;;21.34;52.58;101768.63;5014914;28;20026;-50
2022/07/10 02:57:31;;;;;;;12.13;3.20;;;;;;;21.37;52.69;101770.00;5014365;28;20082;-50
2022/07/10 02:59:58;;;;;;;9.93;2.60;;;;;;;21.20;53.42;101767.31;5014355;28;20426;-46
2022/07/10 03:02:24;;;;;;;11.05;3.00;;;;;;;20.85;54.15;101770.44;5013989;28;20081;-51
2022/07/10 03:04:50;;;;;;;13.57;3.70;;;;;;;20.60;54.98;101770.88;5014156;28;20113;-49
2022/07/10 03:07:16;;;;;;;9.52;3.13;;;;;;;20.47;55.35;101766.63;5003178;28;20112;-47
2022/07/10 03:09:42;;;;;;;12.57;3.40;;;;;;;20.26;55.73;101768.19;5007590;28;20030;-51
2022/07/10 03:12:09;;;;;;;12.38;3.50;;;;;;;20.10;56.38;101764.41;5014284;28;20478;-50
2022/07/10 03:14:35;;;;;;;8.70;3.58;;;;;;;19.98;56.31;101769.09;5032986;28;20069;-47
2022/07/10 03:17:01;;;;;;;8.32;3.60;;;;;;;19.65;57.39;101781.56;5033810;28;20088;-50
2022/07/10 03:19:27;;;;;;;11.90;3.97;;;;;;;19.38;58.12;101775.06;5033736;28;20075;-50
2022/07/10 03:21:54;;;;;;;11.25;3.70;;;;;;;19.36;58.15;101772.56;5033466;28;20033;-51
2022/07/10 03:24:20;;;;;;;12.77;4.22;;;;;;;19.12;59.30;101777.25;5033726;28;20052;-46
2022/07/10 03:26:46;;;;;;;16.15;3.50;;;;;;;18.82;60.25;101787.44;5014300;28;20022;-50
2022/07/10 03:29:12;;;;;;;12.90;4.68;;;;;;;18.72;61.18;101783.44;4993909;28;20065;-50
2022/07/10 03:31:38;;;;;;;15.85;5.75;;;;;;;18.37;62.40;101775.28;4993878;28;20026;-50
2022/07/10 03:34:04;;;;;;;20.60;4.40;;;;;;;18.15;62.64;101775.03;4993743;28;20065;-48
2022/07/10 03:36:31;;;;;;;13.10;4.43;;;;;;;17.94;63.41;101787.25;4997063;28;20521;-48
2022/07/10 03:38:57;;;;;;;11.52;4.05;;;;;;;17.86;63.76;101792.16;5012934;28;20044;-49
2022/07/10 03:41:23;;;;;;;11.20;4.60;;;;;;;17.78;63.88;101790.63;4995275;28;20375;-46
2022/07/10 03:43:49;;;;;;;13.27;4.07;;;;;;;17.54;65.01;101786.94;5003442;28;20088;-45
2022/07/10 03:46:16;;;;;;;14.15;4.18;;;;;;;17.52;65.33;101785.53;5007337;28;20026;-48
2022/07/10 03:48:42;;;;;;;11.95;4.15;;;;;;;17.44;65.50;101780.47;5018546;28;20386;-48
2022/07/10 03:51:08;;;;;;;12.57;4.25;;;;;;;17.40;65.57;101785.50;5012137;28;20074;-44
2022/07/10 03:53:34;;;;;;;17.52;4.30;;;;;;;17.19;66.34;101773.25;5012715;28;20030;-45
2022/07/10 03:56:00;;;;;;;12.55;3.78;;;;;;;17.04;66.76;101791.75;5013020;28;20076;-44
2022/07/10 03:58:27;;;;;;;14.38;4.18;;;;;;;16.95;67.19;101791.25;5012751;28;20034;-47
2022/07/10 04:00:53;;;;;;;12.30;3.97;;;;;;;16.90;67.50;101791.09;5013062;28;20501;-45
2022/07/10 04:03:20;;;;;;;19.45;4.80;;;;;;;16.79;67.85;101781.00;4975768;28;20038;-48
2022/07/10 04:05:46;;;;;;;16.80;4.65;;;;;;;16.57;68.57;101786.81;5012908;28;20401;-47
2022/07/10 04:08:12;;;;;;;13.25;4.45;;;;;;;16.72;68.42;101782.97;5012754;28;20061;-46
2022/07/10 04:10:38;;;;;;;13.18;4.53;;;;;;;16.75;68.06;101787.91;5012552;28;20014;-46
2022/07/10 04:13:05;;;;;;;15.45;4.18;;;;;;;16.61;68.58;101788.03;5011940;28;20037;-48
2022/07/10 04:15:31;;;;;;;20.00;4.05;;;;;;;16.47;68.81;101791.88;5026496;28;20120;-46
2022/07/10 04:17:57;;;;;;;18.63;4.45;;;;;;;16.41;69.55;101791.97;5029987;28;20048;-46
2022/07/10 04:20:24;;;;;;;16.45;4.60;;;;;;;16.44;69.14;101795.06;5028932;28;20029;-47
2022/07/10 04:22:50;;;;;;;22.90;5.80;;;;;;;16.34;69.78;101798.25;5017106;28;20433;-45
2022/07/10 04:25:17;;;;;;;12.75;4.95;;;;;;;16.45;69.37;101796.69;5012214;28;20037;-48
2022/07/10 04:27:43;;;;;;;14.30;4.20;;;;;;;16.41;69.29;101798.19;4994977;28;20048;-47
2022/07/10 04:30:09;;;;;;;16.63;4.35;;;;;;;16.24;69.90;101795.22;4992447;28;20387;-47
2022/07/10 04:32:36;;;;;;;17.15;5.00;;;;;;;16.19;69.80;101803.16;4992141;28;20333;-47
2022/07/10 04:35:03;;;;;;;15.27;4.95;;;;;;;16.23;69.86;101808.94;4992427;28;20096;-48
2022/07/10 04:37:29;;;;;;;9.35;3.97;;;;;;;16.31;70.03;101808.66;5010426;28;20512;-47
2022/07/10 04:39:56;;;;;;;17.02;5.57;;;;;;;16.14;70.63;101804.84;5008786;28;20036;-46
2022/07/10 04:42:22;;;;;;;14.48;4.38;;;;;;;16.13;70.63;101804.03;5009130;28;20394;-46
2022/07/10 04:44:48;;;;;;;20.42;5.75;;;;;;;16.15;70.37;101807.31;5012194;28;20060;-44
2022/07/10 04:47:14;;;;;;;16.15;4.72;;;;;;;16.13;70.20;101806.72;4994299;28;20495;-47
2022/07/10 04:49:40;;;;;;;13.95;5.05;;;;;;;16.03;70.47;101806.38;4997717;28;20026;-45
2022/07/10 04:52:07;;;;;;;19.55;5.00;;;;;;;15.97;70.57;101808.06;5004098;28;20048;-46
2022/07/10 04:54:33;;;;;;;16.88;5.03;;;;;;;15.95;70.81;101803.97;5011847;28;20026;-47
2022/07/10 04:57:00;;;;;;;13.77;4.78;;;;;;;16.01;70.48;101806.59;5012333;28;20412;-46
2022/07/10 04:59:26;;;;;;;12.65;4.53;;;;;;;15.97;70.78;101805.38;5011846;28;20040;-48
2022/07/10 05:01:53;;;;;;;14.05;4.93;;;;;;;16.12;70.22;101804.25;5011855;28;20030;-44
2022/07/10 05:04:19;;;;;;;14.10;4.65;;;;;;;15.99;71.19;101797.91;5011648;28;20037;-44
2022/07/10 05:06:45;;;;;;;16.13;5.18;;;;;;;15.95;71.31;101793.97;4992503;28;20026;-47
2022/07/10 05:09:11;;;;;;;19.55;5.80;;;;;;;15.92;71.52;101793.56;4996669;28;20026;-47
2022/07/10 05:11:37;;;;;;;10.60;4.28;;;;;;;15.78;72.13;101788.28;5011908;28;20041;-45
2022/07/10 05:14:03;;;;;;;13.50;4.75;;;;;;;15.89;71.86;101794.03;5011821;28;20026;-46
2022/07/10 05:16:30;;;;;;;12.52;4.50;;;;;;;15.92;71.61;101796.28;5012037;28;20025;-46
2022/07/10 05:18:56;;;;;;;13.15;4.50;;;;;;;15.74;72.10;101797.03;5011799;28;20034;-48
2022/07/10 05:21:22;;;;;;;12.07;4.18;;;;;;;15.84;71.95;101800.91;5019220;23;20113;-45
2022/07/10 05:23:48;;;;;;;11.73;4.30;;;;;;;15.88;71.60;101808.56;5030999;28;20037;-46
2022/07/10 05:26:15;;;;;;;17.15;4.28;;;;;;;15.86;71.43;101811.47;5031321;28;20466;-49
2022/07/10 05:28:41;;;;;;;18.67;4.80;;;;;;;15.83;71.38;101806.53;5031473;28;20366;-45
2022/07/10 05:31:07;;;;;;;17.15;4.80;;;;;;;15.76;71.37;101811.13;5031142;28;20021;-47
2022/07/10 05:33:33;;;;;;;7.95;4.00;;;;;;;15.86;71.28;101806.06;5031936;28;20512;-45
2022/07/10 05:36:00;;;;;;;13.07;4.72;;;;;;;15.97;71.10;101808.06;5031664;28;20048;-45
2022/07/10 05:38:26;;;;;;;12.02;4.40;;;;;;;15.97;71.35;101813.47;5020947;28;20105;-45
2022/07/10 05:40:53;;;;;;;11.60;4.43;;;;;;;16.07;71.00;101805.72;5031706;28;20090;-47
2022/07/10 05:43:20;;;;;;;12.52;5.15;;;;;;;16.02;71.42;101805.56;5029226;28;20452;-47
2022/07/10 05:45:46;;;;;;;15.52;4.45;;;;;;;15.93;71.80;101803.31;5031273;28;20032;-48
2022/07/10 05:48:13;;;;;;;9.25;4.10;;;;;;;16.00;71.66;101807.66;5029840;28;20021;-45
2022/07/10 05:50:39;;;;;;;15.15;4.40;;;;;;;16.02;71.57;101810.97;5031300;28;20060;-48
2022/07/10 05:53:05;;;;;;;14.70;4.45;;;;;;;16.09;71.49;101809.03;5019946;28;20046;-46
2022/07/10 05:55:31;;;;;;;13.00;4.47;;;;;;;16.07;71.56;101811.13;5011354;28;20497;-46
2022/07/10 05:57:58;;;;;;;13.75;4.50;;;;;;;16.13;71.70;101805.91;5023757;28;20042;-48
2022/07/10 06:00:25;;;;;;;15.85;4.50;;;;;;;16.01;72.25;101803.06;5016664;28;20104;-48
2022/07/10 06:02:51;;;;;;;15.05;4.63;;;;;;;16.16;71.56;101806.31;5024028;28;20065;-45
2022/07/10 06:05:18;;;;;;;15.18;5.38;;;;;;;16.00;71.90;101807.66;5030387;28;20021;-47
2022/07/10 06:07:44;;;;;;;15.32;4.78;;;;;;;16.07;71.68;101811.13;5022929;28;20029;-47
2022/07/10 06:10:10;;;;;;;14.95;4.60;;;;;;;16.05;71.48;101810.53;5034719;28;20481;-46
2022/07/10 06:12:37;;;;;;;13.50;4.88;;;;;;;16.12;71.35;101806.94;5033308;28;20044;-48
2022/07/10 06:15:04;;;;;;;10.82;4.90;;;;;;;16.04;70.98;101803.44;5034435;28;20105;-47
2022/07/10 06:17:30;;;;;;;9.68;4.03;;;;;;;16.09;71.53;101802.81;5028802;28;20061;-47
2022/07/10 06:19:57;;;;;;;12.13;4.82;;;;;;;16.07;71.21;101803.03;5015315;28;20021;-48
2022/07/10 06:22:33;;;;;;;8.98;4.25;;;;;;;16.04;71.19;101791.81;5025959;28;20049;-47
2022/07/10 06:25:07;;;;;;;12.07;4.60;;;;;;;15.99;71.35;101797.91;5016014;28;20030;-48
2022/07/10 06:27:34;;;;;;;11.97;5.23;;;;;;;15.98;71.34;101790.00;5024970;28;20376;-43
2022/07/10 06:30:01;;;;;;;15.20;4.93;;;;;;;15.87;71.86;101788.00;5014781;28;20030;-45
2022/07/10 06:32:27;;;;;;;19.58;5.78;;;;;;;15.86;71.93;101784.47;5014273;28;20030;-45
2022/07/10 06:34:55;;;;;;;14.45;5.78;;;;;;;15.85;71.95;101774.72;5023833;28;20032;-46
2022/07/10 06:37:22;;;;;;;12.50;4.15;;;;;;;15.87;71.62;101785.31;5034070;28;20140;-45
2022/07/10 06:39:49;;;;;;;16.27;6.13;;;;;;;15.80;72.00;101796.16;5045694;28;20075;-44
2022/07/10 06:42:15;;;;;;;18.75;5.13;;;;;;;15.79;71.79;101794.50;5052161;28;20038;-44
2022/07/10 06:44:45;;;;;;;12.93;4.50;;;;;;;15.76;72.18;101805.72;5013870;28;20030;-45
2022/07/10 06:49:59;;;;;;;11.73;4.80;;;;;;;15.76;72.29;101798.44;5014215;28;20438;-47
2022/07/10 06:52:25;;;;;;;21.85;5.47;;;;;;;15.68;72.28;101797.88;5028101;28;20087;-44
2022/07/10 06:54:53;;;;;;;21.20;5.85;;;;;;;15.66;72.36;101797.28;5033728;28;20029;-45
2022/07/10 06:57:19;;;;;;;19.55;4.75;;;;;;;15.65;72.38;101792.91;5033879;28;20128;-49
2022/07/10 06:59:46;;;;;;;12.65;4.60;;;;;;;15.54;72.66;101794.38;5033688;28;20033;-44
2022/07/10 07:02:12;;;;;;;20.63;5.32;;;;;;;15.58;72.90;101793.75;5022341;28;20517;-46
2022/07/10 07:04:39;;;;;;;10.57;4.57;;;;;;;15.51;72.85;101790.25;4996403;28;20070;-46
2022/07/10 07:07:05;;;;;;;14.93;5.40;;;;;;;15.48;73.05;101793.38;5013687;28;20382;-43
2022/07/10 07:09:31;;;;;;;14.55;4.90;;;;;;;15.48;72.96;101798.78;5027932;28;20037;-46
2022/07/10 07:11:57;;;;;;;14.52;5.07;;;;;;;15.45;72.93;101804.63;5033190;28;20398;-47
2022/07/10 07:14:24;;;;;;;13.15;5.35;;;;;;;15.28;74.28;101804.28;5033406;28;20132;-46
2022/07/10 07:25:08;;;;;;;8.95;4.88;;;;;;;15.19;75.49;101799.31;5023399;28;20079;-44
2022/07/10 07:27:36;;;;;;;15.30;5.38;;;;;;;15.11;75.43;101794.19;5033145;28;20029;-44
2022/07/10 07:30:19;;;;;;;19.95;5.38;;;;;;;15.20;74.97;101795.59;5032240;28;20466;-46
2022/07/10 07:32:46;;;;;;;11.32;6.07;;;;;;;15.16;75.08;101784.41;5031639;28;20354;-45
2022/07/10 07:35:14;;;;;;;9.38;4.97;;;;;;;15.21;74.40;101792.69;5030863;28;20026;-47
2022/07/10 07:37:42;;;;;;;11.32;4.95;;;;;;;15.19;74.54;101789.38;5033038;28;20075;-45
2022/07/10 07:40:11;;;;;;;11.98;4.78;;;;;;;15.17;74.55;101796.84;5032275;28;20029;-46
2022/07/10 07:42:38;;;;;;;13.90;5.30;;;;;;;15.15;75.02;101798.09;5032592;28;20025;-45
2022/07/10 07:45:05;;;;;;;13.75;4.75;;;;;;;15.12;75.04;101798.53;5031662;28;20034;-44
2022/07/10 07:47:43;;;;;;;14.52;5.60;;;;;;;15.02;75.61;101798.97;5032884;28;20025;-46
2022/07/10 07:50:09;;;;;;;15.32;5.22;;;;;;;15.09;75.18;101790.84;5031559;28;20061;-46
2022/07/10 07:52:35;;;;;;;17.35;6.15;;;;;;;15.03;75.46;101793.34;5032561;28;20026;-46
2022/07/10 07:55:02;;;;;;;13.45;6.25;;;;;;;14.95;75.89;101790.91;5031364;28;20025;-43
2022/07/10 07:57:28;;;;;;;15.48;6.32;;;;;;;14.98;75.90;101793.16;5032757;28;20033;-47
2022/07/10 07:59:54;;;;;;;15.68;5.50;;;;;;;14.95;75.95;101782.81;5031442;28;20032;-46
2022/07/10 08:02:21;;;;;;;15.80;5.38;;;;;;;14.91;76.21;101786.97;5032321;28;20135;-47
2022/07/10 08:04:48;;;;;;;14.75;5.85;;;;;;;14.84;76.12;101783.47;5031264;28;20062;-46
2022/07/10 08:07:14;;;;;;;12.50;5.25;;;;;;;14.82;76.36;101790.91;5033084;28;20021;-45
2022/07/10 08:09:40;;;;;;;15.27;5.60;;;;;;;14.76;76.74;101789.06;5031440;28;20037;-46
2022/07/10 08:12:07;;;;;;;13.18;5.40;;;;;;;14.63;77.08;101792.63;5024529;28;20410;-44
2022/07/10 08:14:33;;;;;;;12.48;4.65;;;;;;;14.61;77.87;101796.56;5029632;28;20029;-47
2022/07/10 08:16:59;;;;;;;11.25;5.82;;;;;;;14.65;77.77;101809.41;5032244;28;20026;-45
2022/07/10 08:19:25;;;;;;;18.73;5.45;;;;;;;14.57;78.11;101803.41;5031101;28;20033;-48
2022/07/10 08:21:52;;;;;;;14.52;5.55;;;;;;;14.62;77.81;101792.84;5029965;28;20041;-46
2022/07/10 08:24:18;;;;;;;13.48;5.63;;;;;;;14.62;77.93;101790.97;5032221;28;20029;-43
2022/07/10 08:26:45;;;;;;;12.65;5.72;;;;;;;14.63;77.90;101778.31;5030899;28;20437;-47
2022/07/10 08:29:11;;;;;;;13.65;5.80;;;;;;;14.59;78.29;101775.22;5032172;28;20061;-49
2022/07/10 08:31:39;;;;;;;17.65;6.40;;;;;;;14.50;78.69;101777.31;5030805;28;20029;-46
2022/07/10 08:34:05;;;;;;;16.35;5.30;;;;;;;14.61;78.36;101775.03;5013195;28;20382;-45
2022/07/10 08:36:32;;;;;;;15.63;5.60;;;;;;;14.47;78.93;101785.81;5031839;28;20045;-45
2022/07/10 08:38:58;;;;;;;17.65;6.18;;;;;;;14.49;78.54;101783.75;5030967;28;20040;-46
2022/07/10 08:41:26;;;;;;;14.43;5.82;;;;;;;14.53;78.83;101784.97;5031620;28;20025;-47
2022/07/10 08:43:53;;;;;;;15.32;6.32;;;;;;;14.53;78.71;101784.97;5030838;28;20383;-46
2022/07/10 08:46:19;;;;;;;14.85;5.53;;;;;;;14.49;79.24;101778.34;5031836;28;20029;-48
2022/07/10 08:48:53;;;;;;;10.27;5.50;;;;;;;14.42;79.32;101782.88;5029566;28;20481;-47
2022/07/10 08:51:55;;;;;;;17.75;6.90;;;;;;;14.57;79.00;101777.31;5030499;28;20076;-45
2022/07/10 08:54:23;;;;;;;16.15;4.85;;;;;;;14.60;78.83;101781.44;5025961;28;20041;-47
2022/07/10 08:56:51;;;;;;;16.25;5.70;;;;;;;14.64;78.75;101772.72;5030413;28;20477;-44
2022/07/10 08:59:18;;;;;;;14.57;5.85;;;;;;;14.62;78.64;101772.13;5031780;28;20394;-43
2022/07/10 09:01:44;;;;;;;18.10;6.22;;;;;;;14.65;78.77;101765.47;5029919;28;20021;-45
2022/07/10 09:04:22;;;;;;;9.15;5.47;;;;;;;14.60;79.18;101768.78;5029470;28;20541;-47
2022/07/10 09:06:49;;;;;;;18.95;7.50;;;;;;;14.70;79.10;101773.75;5029065;28;20359;-45
2022/07/10 09:09:15;;;;;;;13.85;5.43;;;;;;;14.80;78.71;101768.75;5031770;28;20100;-48
2022/07/10 09:11:44;;;;;;;17.23;6.53;;;;;;;14.69;79.47;101774.78;5019371;28;20382;-49
2022/07/10 09:14:14;;;;;;;12.18;5.80;;;;;;;14.64;79.57;101758.41;5011926;28;20026;-48
2022/07/10 09:16:45;;;;;;;13.40;6.15;;;;;;;14.73;79.05;101760.69;5021458;28;20103;-46
2022/07/10 09:19:28;;;;;;;18.25;5.95;;;;;;;14.75;79.01;101764.00;5032001;28;20026;-47
2022/07/10 09:22:07;;;;;;;18.08;5.93;;;;;;;14.86;78.94;101757.13;5030171;28;20473;-48
2022/07/10 09:24:46;;;;;;;15.80;6.15;;;;;;;14.85;79.04;101758.16;5031761;28;20025;-44
2022/07/10 09:27:15;;;;;;;12.95;6.68;;;;;;;14.85;79.68;101755.47;5030526;28;20036;-46
2022/07/10 09:29:57;;;;;;;11.98;6.15;;;;;;;14.93;78.89;101757.09;5031800;28;20021;-45
2022/07/10 09:32:24;;;;;;;15.73;6.03;;;;;;;14.99;79.53;101758.94;5031799;28;20053;-48
2022/07/10 09:37:39;;;;;;;16.05;6.20;;;;;;;14.99;79.71;101757.09;5034682;28;20081;-45
2022/07/10 09:40:07;;;;;;;15.18;6.22;;;;;;;14.95;79.82;101750.47;5035560;28;20025;-44
2022/07/10 09:42:42;;;;;;;13.90;5.90;;;;;;;15.05;79.56;101750.03;5033964;28;20029;-45
2022/07/10 09:45:20;;;;;;;24.17;5.57;;;;;;;14.97;79.16;101753.75;5033016;28;20466;-45
2022/07/10 09:48:00;;;;;;;14.05;6.55;;;;;;;15.04;79.40;101751.03;5034037;28;20034;-48
2022/07/10 09:50:34;;;;;;;14.38;5.32;;;;;;;15.08;78.82;101752.28;5035269;28;20033;-47
2022/07/10 09:53:05;;;;;;;19.58;6.00;;;;;;;15.03;79.11;101752.91;5034271;28;20099;-47
2022/07/10 09:55:34;;;;;;;14.68;5.57;;;;;;;15.12;78.88;101750.00;5035969;28;20478;-44
2022/07/10 09:58:06;;;;;;;16.60;6.47;;;;;;;15.10;78.75;101754.75;5033890;28;20061;-47
2022/07/10 10:00:46;;;;;;;15.68;5.30;;;;;;;15.12;78.62;101758.09;5033587;28;20102;-44
2022/07/10 10:03:14;;;;;;;16.67;5.80;;;;;;;15.15;78.55;101754.94;5035098;28;20386;-46
2022/07/10 10:05:45;;;;;;;17.25;5.57;;;;;;;15.09;78.82;101750.41;5034053;28;20079;-47
2022/07/10 10:08:24;;;;;;;16.15;5.82;;;;;;;14.92;79.60;101753.56;5035139;28;20029;-49
2022/07/10 10:10:51;;;;;;;14.40;5.28;;;;;;;15.00;79.15;101760.63;5033912;28;20072;-46
2022/07/10 10:13:25;;;;;;;19.90;5.55;;;;;;;14.86;79.86;101756.28;5034692;28;20056;-45
2022/07/10 10:15:52;;;;;;;15.02;5.30;;;;;;;14.99;79.28;101757.09;5033470;28;20037;-45
2022/07/10 10:18:22;;;;;;;9.95;5.45;;;;;;;15.02;79.15;101751.25;5035008;28;20021;-48
2022/07/10 10:20:50;;;;;;;14.45;5.68;;;;;;;15.02;78.68;101745.03;5033745;28;20038;-47
2022/07/10 10:23:21;;;;;;;16.48;5.63;;;;;;;15.10;78.23;101750.19;5034447;28;20106;-45
2022/07/10 10:25:56;;;;;;;18.98;5.63;;;;;;;15.10;78.58;101746.66;5027678;28;20029;-44
2022/07/10 10:28:25;;;;;;;17.38;5.72;;;;;;;15.14;78.21;101742.50;5013128;28;20033;-49
2022/07/10 10:30:57;;;;;;;11.88;4.78;;;;;;;15.17;77.80;101750.19;5021370;28;20069;-46
2022/07/10 10:33:33;;;;;;;14.13;5.03;;;;;;;15.18;77.66;101749.13;5027750;28;20112;-47
2022/07/10 10:36:01;;;;;;;11.65;4.88;;;;;;;15.10;78.20;101747.50;5033636;28;20041;-46
2022/07/10 10:38:49;;;;;;;11.63;5.00;;;;;;;14.98;78.54;101750.03;5033818;28;20022;-49
2022/07/10 10:41:39;;;;;;;9.05;4.80;;;;;;;14.96;78.89;101744.03;5023733;28;20064;-46
2022/07/10 10:44:09;;;;;;;12.65;4.60;;;;;;;14.81;79.28;101754.22;5019120;28;20076;-45
2022/07/10 10:49:53;;;;;;;15.25;5.00;;;;;;;14.91;78.66;101754.63;5020526;28;20125;-47
2022/07/10 10:52:21;;;;;;;13.40;4.55;;;;;;;15.00;78.66;101753.34;5033578;28;20060;-46
2022/07/10 10:54:56;;;;;;;11.93;4.25;;;;;;;14.90;78.63;101758.34;5033688;28;20053;-48
2022/07/10 10:57:45;;;;;;;11.48;4.63;;;;;;;14.91;78.24;101749.22;5034016;28;20021;-45
2022/07/10 11:00:14;;;;;;;9.00;4.03;;;;;;;14.85;78.08;101755.47;5028887;28;20516;-47
2022/07/10 11:02:41;;;;;;;7.35;3.75;;;;;;;14.85;78.28;101752.78;5033748;28;20056;-46
2022/07/10 11:05:20;;;;;;;10.90;4.35;;;;;;;14.86;78.09;101749.03;5033576;28;20180;-45
2022/07/10 11:07:55;;;;;;;9.43;4.30;;;;;;;14.75;78.20;101744.31;5033727;28;20469;-44
2022/07/10 11:10:36;;;;;;;;;;;;;;;14.73;78.38;101743.69;5020871;28;20022;-45
2022/07/10 11:13:03;;;;;;;11.35;4.32;;;;;;;14.70;78.11;101741.41;5033167;28;19917;-45
2022/07/10 11:15:32;;;;;;;10.55;3.97;;;;;;;14.72;78.05;101742.03;5033337;28;20359;-47
2022/07/10 11:18:03;;;;;;;7.65;4.30;;;;;;;14.71;77.95;101743.06;5013507;28;20030;-48
2022/07/10 11:20:36;;;;;;;8.18;3.80;;;;;;;14.63;78.43;101729.81;5014859;28;20021;-45
2022/07/10 11:23:07;;;;;;;6.95;4.22;;;;;;;14.60;78.97;101738.31;5030407;28;20359;-47
2022/07/10 11:26:07;;;;;;;9.48;5.03;;;;;;;14.65;79.06;101738.50;5032135;28;20033;-48
2022/07/10 11:28:51;;;;;;;9.50;4.60;;;;;;;14.64;78.85;101739.56;5033633;28;20371;-46
2022/07/10 11:31:18;;;;;;;12.07;4.75;;;;;;;14.55;79.49;101744.38;5033375;28;20112;-45
2022/07/10 11:33:48;;;;;;;7.60;4.10;;;;;;;14.65;79.31;101746.59;5033335;28;20489;-47
2022/07/10 11:36:16;;;;;;;7.57;4.25;;;;;;;14.75;78.70;101739.72;5033301;28;20493;-45
2022/07/10 11:38:43;;;;;;;11.35;5.10;;;;;;;14.72;78.87;101739.34;5033421;28;20051;-45
2022/07/10 11:41:21;;;;;;;9.75;4.65;;;;;;;14.74;79.10;101735.38;5032567;28;20024;-47
2022/07/10 11:43:55;;;;;;;10.75;4.00;;;;;;;14.76;79.07;101740.56;5033295;28;20057;-47